sensor_id;sensor_type;location;lat;lon;timestamp;temperature;humidity
6843;DHT22;3460;52.028;8.916;2023-05-14T00:00:53;10.10;99.90
6843;DHT22;3460;52.028;8.916;2023-05-14T00:03:20;10.10;99.90
6843;DHT22;3460;52.028;8.916;2023-05-14T00:05:47;10.00;99.90
6843;DHT22;3460;52.028;8.916;2023-05-14T00:08:14;9.90;99.90
6843;DHT22;3460;52.028;8.916;2023-05-14T00:10:42;9.90;99.90
6843;DHT22;3460;52.028;8.916;2023-05-14T00:13:09;9.90;99.90
6843;DHT22;3460;52.028;8.916;2023-05-14T00:15:35;9.90;99.90
6843;DHT22;3460;52.028;8.916;2023-05-14T00:18:02;9.90;99.90
6843;DHT22;3460;52.028;8.916;2023-05-14T00:20:29;9.80;99.90
6843;DHT22;3460;52.028;8.916;2023-05-14T00:22:56;9.90;99.90
6843;DHT22;3460;52.028;8.916;2023-05-14T00:25:23;9.80;99.90
6843;DHT22;3460;52.028;8.916;2023-05-14T00:27:51;9.80;99.90
6843;DHT22;3460;52.028;8.916;2023-05-14T00:30:18;9.90;99.90
6843;DHT22;3460;52.028;8.916;2023-05-14T00:32:45;9.90;99.90
6843;DHT22;3460;52.028;8.916;2023-05-14T00:35:12;9.90;99.90
6843;DHT22;3460;52.028;8.916;2023-05-14T00:37:38;9.90;99.90
6843;DHT22;3460;52.028;8.916;2023-05-14T00:40:07;9.80;99.90
6843;DHT22;3460;52.028;8.916;2023-05-14T00:42:36;9.70;99.90
6843;DHT22;3460;52.028;8.916;2023-05-14T00:45:06;9.80;99.90
6843;DHT22;3460;52.028;8.916;2023-05-14T00:47:33;9.80;99.90
6843;DHT22;3460;52.028;8.916;2023-05-14T00:50:01;9.70;99.90
6843;DHT22;3460;52.028;8.916;2023-05-14T00:52:29;9.60;99.90
6843;DHT22;3460;52.028;8.916;2023-05-14T00:54:56;9.60;99.90
6843;DHT22;3460;52.028;8.916;2023-05-14T00:57:24;9.60;99.90
6843;DHT22;3460;52.028;8.916;2023-05-14T00:59:51;9.60;99.90
6843;DHT22;3460;52.028;8.916;2023-05-14T01:02:19;9.60;99.90
6843;DHT22;3460;52.028;8.916;2023-05-14T01:04:46;9.50;99.90
6843;DHT22;3460;52.028;8.916;2023-05-14T01:07:29;9.50;99.90
6843;DHT22;3460;52.028;8.916;2023-05-14T01:10:02;9.40;99.90
6843;DHT22;3460;52.028;8.916;2023-05-14T01:12:35;9.40;99.90
6843;DHT22;3460;52.028;8.916;2023-05-14T01:15:07;9.40;99.90
6843;DHT22;3460;52.028;8.916;2023-05-14T01:17:39;9.20;99.90
6843;DHT22;3460;52.028;8.916;2023-05-14T01:20:08;9.30;99.90
6843;DHT22;3460;52.028;8.916;2023-05-14T01:22:36;9.20;99.90
6843;DHT22;3460;52.028;8.916;2023-05-14T01:25:04;9.20;99.90
6843;DHT22;3460;52.028;8.916;2023-05-14T01:27:34;9.20;99.90
6843;DHT22;3460;52.028;8.916;2023-05-14T01:30:12;9.20;99.90
6843;DHT22;3460;52.028;8.916;2023-05-14T01:32:40;9.10;99.90
6843;DHT22;3460;52.028;8.916;2023-05-14T01:35:09;9.10;99.90
6843;DHT22;3460;52.028;8.916;2023-05-14T01:37:38;9.00;99.90
6843;DHT22;3460;52.028;8.916;2023-05-14T01:40:07;8.90;99.90
6843;DHT22;3460;52.028;8.916;2023-05-14T01:42:34;8.90;99.90
6843;DHT22;3460;52.028;8.916;2023-05-14T01:45:02;9.00;99.90
6843;DHT22;3460;52.028;8.916;2023-05-14T01:47:29;8.90;99.90
6843;DHT22;3460;52.028;8.916;2023-05-14T01:49:56;8.70;99.90
6843;DHT22;3460;52.028;8.916;2023-05-14T01:52:23;8.70;99.90
6843;DHT22;3460;52.028;8.916;2023-05-14T01:54:51;8.70;99.90
6843;DHT22;3460;52.028;8.916;2023-05-14T01:57:18;8.60;99.90
6843;DHT22;3460;52.028;8.916;2023-05-14T01:59:45;8.60;99.90
6843;DHT22;3460;52.028;8.916;2023-05-14T02:02:12;8.60;99.90
6843;DHT22;3460;52.028;8.916;2023-05-14T02:04:39;8.60;99.90
6843;DHT22;3460;52.028;8.916;2023-05-14T02:07:06;8.60;99.90
6843;DHT22;3460;52.028;8.916;2023-05-14T02:09:33;8.50;99.90
6843;DHT22;3460;52.028;8.916;2023-05-14T02:12:01;8.50;99.90
6843;DHT22;3460;52.028;8.916;2023-05-14T02:14:28;8.50;99.90
6843;DHT22;3460;52.028;8.916;2023-05-14T02:16:54;8.40;99.90
6843;DHT22;3460;52.028;8.916;2023-05-14T02:19:21;8.40;99.90
6843;DHT22;3460;52.028;8.916;2023-05-14T02:21:49;8.40;99.90
6843;DHT22;3460;52.028;8.916;2023-05-14T02:24:16;8.40;99.90
6843;DHT22;3460;52.028;8.916;2023-05-14T02:26:42;8.30;99.90
6843;DHT22;3460;52.028;8.916;2023-05-14T02:29:11;8.30;99.90
6843;DHT22;3460;52.028;8.916;2023-05-14T02:31:37;8.30;99.90
6843;DHT22;3460;52.028;8.916;2023-05-14T02:34:05;8.30;99.90
6843;DHT22;3460;52.028;8.916;2023-05-14T02:36:32;8.30;99.90
6843;DHT22;3460;52.028;8.916;2023-05-14T02:38:59;8.30;99.90
6843;DHT22;3460;52.028;8.916;2023-05-14T02:41:26;8.30;99.90
6843;DHT22;3460;52.028;8.916;2023-05-14T02:43:53;8.30;99.90
6843;DHT22;3460;52.028;8.916;2023-05-14T02:46:21;8.30;99.90
6843;DHT22;3460;52.028;8.916;2023-05-14T02:48:48;8.20;99.90
6843;DHT22;3460;52.028;8.916;2023-05-14T02:51:15;8.20;99.90
6843;DHT22;3460;52.028;8.916;2023-05-14T02:53:42;8.20;99.90
6843;DHT22;3460;52.028;8.916;2023-05-14T02:56:09;8.10;99.90
6843;DHT22;3460;52.028;8.916;2023-05-14T02:58:35;8.20;99.90
6843;DHT22;3460;52.028;8.916;2023-05-14T03:01:02;8.20;99.90
6843;DHT22;3460;52.028;8.916;2023-05-14T03:03:30;8.30;99.90
6843;DHT22;3460;52.028;8.916;2023-05-14T03:05:57;8.30;99.90
6843;DHT22;3460;52.028;8.916;2023-05-14T03:08:24;8.20;99.90
6843;DHT22;3460;52.028;8.916;2023-05-14T03:10:51;8.20;99.90
6843;DHT22;3460;52.028;8.916;2023-05-14T03:13:18;8.30;99.90
6843;DHT22;3460;52.028;8.916;2023-05-14T03:15:45;8.30;99.90
6843;DHT22;3460;52.028;8.916;2023-05-14T03:18:13;8.20;99.90
6843;DHT22;3460;52.028;8.916;2023-05-14T03:20:41;8.20;99.90
6843;DHT22;3460;52.028;8.916;2023-05-14T03:23:08;8.20;99.90
6843;DHT22;3460;52.028;8.916;2023-05-14T03:25:34;8.30;99.90
6843;DHT22;3460;52.028;8.916;2023-05-14T03:28:02;8.30;99.90
6843;DHT22;3460;52.028;8.916;2023-05-14T03:30:28;8.30;99.90
6843;DHT22;3460;52.028;8.916;2023-05-14T03:32:55;8.30;99.90
6843;DHT22;3460;52.028;8.916;2023-05-14T03:35:22;8.30;99.90
6843;DHT22;3460;52.028;8.916;2023-05-14T03:37:51;8.30;99.90
6843;DHT22;3460;52.028;8.916;2023-05-14T03:40:18;8.30;99.90
6843;DHT22;3460;52.028;8.916;2023-05-14T03:42:45;8.20;99.90
6843;DHT22;3460;52.028;8.916;2023-05-14T03:45:12;8.20;99.90
6843;DHT22;3460;52.028;8.916;2023-05-14T03:47:39;8.20;99.90
6843;DHT22;3460;52.028;8.916;2023-05-14T03:50:07;8.20;99.90
6843;DHT22;3460;52.028;8.916;2023-05-14T03:52:34;8.20;99.90
6843;DHT22;3460;52.028;8.916;2023-05-14T03:55:02;8.20;99.90
6843;DHT22;3460;52.028;8.916;2023-05-14T03:57:29;8.30;99.90
6843;DHT22;3460;52.028;8.916;2023-05-14T03:59:56;8.30;99.90
6843;DHT22;3460;52.028;8.916;2023-05-14T04:02:23;8.40;99.90
6843;DHT22;3460;52.028;8.916;2023-05-14T04:04:50;8.40;99.90
6843;DHT22;3460;52.028;8.916;2023-05-14T04:07:16;8.40;99.90
6843;DHT22;3460;52.028;8.916;2023-05-14T04:09:43;8.30;99.90
6843;DHT22;3460;52.028;8.916;2023-05-14T04:12:11;8.30;99.90
6843;DHT22;3460;52.028;8.916;2023-05-14T04:14:38;8.30;99.90
6843;DHT22;3460;52.028;8.916;2023-05-14T04:17:05;8.20;99.90
6843;DHT22;3460;52.028;8.916;2023-05-14T04:19:32;8.30;99.90
6843;DHT22;3460;52.028;8.916;2023-05-14T04:21:59;8.30;99.90
6843;DHT22;3460;52.028;8.916;2023-05-14T04:24:25;8.30;99.90
6843;DHT22;3460;52.028;8.916;2023-05-14T04:26:52;8.40;99.90
6843;DHT22;3460;52.028;8.916;2023-05-14T04:29:20;8.40;99.90
6843;DHT22;3460;52.028;8.916;2023-05-14T04:31:48;8.50;99.90
6843;DHT22;3460;52.028;8.916;2023-05-14T04:34:15;8.50;99.90
6843;DHT22;3460;52.028;8.916;2023-05-14T04:36:42;8.60;99.90
6843;DHT22;3460;52.028;8.916;2023-05-14T04:39:08;8.60;99.90
6843;DHT22;3460;52.028;8.916;2023-05-14T04:41:36;8.80;99.90
6843;DHT22;3460;52.028;8.916;2023-05-14T04:44:03;9.00;99.90
6843;DHT22;3460;52.028;8.916;2023-05-14T04:46:32;9.20;99.90
6843;DHT22;3460;52.028;8.916;2023-05-14T04:48:58;9.30;99.90
6843;DHT22;3460;52.028;8.916;2023-05-14T04:51:25;9.40;99.90
6843;DHT22;3460;52.028;8.916;2023-05-14T04:53:52;9.50;99.90
6843;DHT22;3460;52.028;8.916;2023-05-14T04:56:19;9.60;99.90
6843;DHT22;3460;52.028;8.916;2023-05-14T04:58:45;9.70;99.90
6843;DHT22;3460;52.028;8.916;2023-05-14T05:01:12;9.80;99.90
6843;DHT22;3460;52.028;8.916;2023-05-14T05:03:41;9.90;99.90
6843;DHT22;3460;52.028;8.916;2023-05-14T05:06:07;10.00;99.90
6843;DHT22;3460;52.028;8.916;2023-05-14T05:08:35;10.20;99.90
6843;DHT22;3460;52.028;8.916;2023-05-14T05:11:02;10.20;99.90
6843;DHT22;3460;52.028;8.916;2023-05-14T05:13:29;10.30;99.90
6843;DHT22;3460;52.028;8.916;2023-05-14T05:15:56;10.40;99.90
6843;DHT22;3460;52.028;8.916;2023-05-14T05:18:23;10.50;99.90
6843;DHT22;3460;52.028;8.916;2023-05-14T05:20:51;10.70;99.90
6843;DHT22;3460;52.028;8.916;2023-05-14T05:23:18;10.80;99.90
6843;DHT22;3460;52.028;8.916;2023-05-14T05:25:45;11.00;99.90
6843;DHT22;3460;52.028;8.916;2023-05-14T05:28:12;11.20;99.90
6843;DHT22;3460;52.028;8.916;2023-05-14T05:30:38;11.30;99.90
6843;DHT22;3460;52.028;8.916;2023-05-14T05:33:05;11.30;99.90
6843;DHT22;3460;52.028;8.916;2023-05-14T05:35:32;11.40;99.90
6843;DHT22;3460;52.028;8.916;2023-05-14T05:38:01;11.50;99.90
6843;DHT22;3460;52.028;8.916;2023-05-14T05:40:27;11.50;99.90
6843;DHT22;3460;52.028;8.916;2023-05-14T05:42:54;11.60;99.90
6843;DHT22;3460;52.028;8.916;2023-05-14T05:45:21;11.70;99.90
6843;DHT22;3460;52.028;8.916;2023-05-14T05:47:48;11.70;99.90
6843;DHT22;3460;52.028;8.916;2023-05-14T05:50:15;11.70;99.90
6843;DHT22;3460;52.028;8.916;2023-05-14T05:52:42;11.80;99.90
6843;DHT22;3460;52.028;8.916;2023-05-14T05:55:10;11.90;99.90
6843;DHT22;3460;52.028;8.916;2023-05-14T05:57:37;11.90;99.90
6843;DHT22;3460;52.028;8.916;2023-05-14T06:00:04;12.00;99.90
6843;DHT22;3460;52.028;8.916;2023-05-14T06:02:37;12.10;99.90
6843;DHT22;3460;52.028;8.916;2023-05-14T06:05:05;12.20;99.90
6843;DHT22;3460;52.028;8.916;2023-05-14T06:07:32;12.20;99.90
6843;DHT22;3460;52.028;8.916;2023-05-14T06:09:59;12.40;99.90
6843;DHT22;3460;52.028;8.916;2023-05-14T06:12:27;12.50;99.90
6843;DHT22;3460;52.028;8.916;2023-05-14T06:14:54;12.60;99.90
6843;DHT22;3460;52.028;8.916;2023-05-14T06:17:22;12.70;99.90
6843;DHT22;3460;52.028;8.916;2023-05-14T06:19:49;12.90;99.90
6843;DHT22;3460;52.028;8.916;2023-05-14T06:22:16;13.00;99.90
6843;DHT22;3460;52.028;8.916;2023-05-14T06:24:43;13.10;99.90
6843;DHT22;3460;52.028;8.916;2023-05-14T06:27:10;13.30;99.90
6843;DHT22;3460;52.028;8.916;2023-05-14T06:29:38;13.50;99.90
6843;DHT22;3460;52.028;8.916;2023-05-14T06:32:06;13.70;99.90
6843;DHT22;3460;52.028;8.916;2023-05-14T06:34:33;13.90;99.90
6843;DHT22;3460;52.028;8.916;2023-05-14T06:37:00;14.10;99.90
6843;DHT22;3460;52.028;8.916;2023-05-14T06:39:28;14.30;99.90
6843;DHT22;3460;52.028;8.916;2023-05-14T06:41:54;14.30;99.90
6843;DHT22;3460;52.028;8.916;2023-05-14T06:44:21;14.50;99.90
6843;DHT22;3460;52.028;8.916;2023-05-14T06:46:49;14.70;99.90
6843;DHT22;3460;52.028;8.916;2023-05-14T06:49:16;14.90;99.90
6843;DHT22;3460;52.028;8.916;2023-05-14T06:51:43;15.10;99.90
6843;DHT22;3460;52.028;8.916;2023-05-14T06:54:11;15.40;99.90
6843;DHT22;3460;52.028;8.916;2023-05-14T06:56:39;15.50;99.90
6843;DHT22;3460;52.028;8.916;2023-05-14T06:59:05;15.50;99.90
6843;DHT22;3460;52.028;8.916;2023-05-14T07:01:32;15.80;99.90
6843;DHT22;3460;52.028;8.916;2023-05-14T07:04:00;16.00;99.90
6843;DHT22;3460;52.028;8.916;2023-05-14T07:06:27;16.10;99.90
6843;DHT22;3460;52.028;8.916;2023-05-14T07:08:54;16.30;99.90
6843;DHT22;3460;52.028;8.916;2023-05-14T07:11:21;16.40;99.90
6843;DHT22;3460;52.028;8.916;2023-05-14T07:13:47;16.60;99.90
6843;DHT22;3460;52.028;8.916;2023-05-14T07:16:14;16.70;99.90
6843;DHT22;3460;52.028;8.916;2023-05-14T07:18:41;16.80;99.90
6843;DHT22;3460;52.028;8.916;2023-05-14T07:21:09;17.00;99.90
6843;DHT22;3460;52.028;8.916;2023-05-14T07:23:36;17.10;99.90
6843;DHT22;3460;52.028;8.916;2023-05-14T07:26:04;17.20;99.90
6843;DHT22;3460;52.028;8.916;2023-05-14T07:28:31;17.30;99.90
6843;DHT22;3460;52.028;8.916;2023-05-14T07:30:58;17.40;99.90
6843;DHT22;3460;52.028;8.916;2023-05-14T07:33:25;17.50;99.90
6843;DHT22;3460;52.028;8.916;2023-05-14T07:35:52;17.70;99.90
6843;DHT22;3460;52.028;8.916;2023-05-14T07:38:21;17.80;99.90
6843;DHT22;3460;52.028;8.916;2023-05-14T07:40:47;17.90;99.90
6843;DHT22;3460;52.028;8.916;2023-05-14T07:43:14;18.00;99.90
6843;DHT22;3460;52.028;8.916;2023-05-14T07:45:41;18.00;99.90
6843;DHT22;3460;52.028;8.916;2023-05-14T07:48:08;18.10;99.90
6843;DHT22;3460;52.028;8.916;2023-05-14T07:50:35;18.20;99.90
6843;DHT22;3460;52.028;8.916;2023-05-14T07:53:02;17.80;99.90
6843;DHT22;3460;52.028;8.916;2023-05-14T07:55:30;17.80;99.90
6843;DHT22;3460;52.028;8.916;2023-05-14T07:57:57;17.90;99.90
6843;DHT22;3460;52.028;8.916;2023-05-14T08:00:24;17.70;99.90
6843;DHT22;3460;52.028;8.916;2023-05-14T08:02:51;17.90;99.90
6843;DHT22;3460;52.028;8.916;2023-05-14T08:05:18;18.20;99.90
6843;DHT22;3460;52.028;8.916;2023-05-14T08:07:45;18.40;99.90
6843;DHT22;3460;52.028;8.916;2023-05-14T08:10:11;18.60;99.90
6843;DHT22;3460;52.028;8.916;2023-05-14T08:12:40;18.20;99.90
6843;DHT22;3460;52.028;8.916;2023-05-14T08:15:08;17.90;99.90
6843;DHT22;3460;52.028;8.916;2023-05-14T08:17:35;17.80;99.90
6843;DHT22;3460;52.028;8.916;2023-05-14T08:20:01;18.00;99.90
6843;DHT22;3460;52.028;8.916;2023-05-14T08:22:30;18.00;99.90
6843;DHT22;3460;52.028;8.916;2023-05-14T08:24:57;18.10;99.90
6843;DHT22;3460;52.028;8.916;2023-05-14T08:27:26;18.30;99.90
6843;DHT22;3460;52.028;8.916;2023-05-14T08:29:54;18.10;99.90
6843;DHT22;3460;52.028;8.916;2023-05-14T08:32:21;18.10;99.90
6843;DHT22;3460;52.028;8.916;2023-05-14T08:34:47;18.20;99.90
6843;DHT22;3460;52.028;8.916;2023-05-14T08:37:14;18.10;99.90
6843;DHT22;3460;52.028;8.916;2023-05-14T08:39:41;17.80;99.90
6843;DHT22;3460;52.028;8.916;2023-05-14T08:42:11;17.90;99.90
6843;DHT22;3460;52.028;8.916;2023-05-14T08:44:42;18.00;99.90
6843;DHT22;3460;52.028;8.916;2023-05-14T08:47:15;18.10;99.90
6843;DHT22;3460;52.028;8.916;2023-05-14T08:49:45;18.40;99.90
6843;DHT22;3460;52.028;8.916;2023-05-14T08:52:15;18.50;99.90
6843;DHT22;3460;52.028;8.916;2023-05-14T08:54:44;18.70;99.90
6843;DHT22;3460;52.028;8.916;2023-05-14T08:57:12;18.80;99.90
6843;DHT22;3460;52.028;8.916;2023-05-14T08:59:39;18.40;99.90
6843;DHT22;3460;52.028;8.916;2023-05-14T09:02:09;18.30;99.90
6843;DHT22;3460;52.028;8.916;2023-05-14T09:04:39;18.00;99.90
6843;DHT22;3460;52.028;8.916;2023-05-14T09:07:06;17.80;99.90
6843;DHT22;3460;52.028;8.916;2023-05-14T09:09:33;17.80;99.90
6843;DHT22;3460;52.028;8.916;2023-05-14T09:12:00;17.90;99.90
6843;DHT22;3460;52.028;8.916;2023-05-14T09:14:27;18.40;99.90
6843;DHT22;3460;52.028;8.916;2023-05-14T09:16:54;18.50;99.90
6843;DHT22;3460;52.028;8.916;2023-05-14T09:19:22;18.60;99.90
6843;DHT22;3460;52.028;8.916;2023-05-14T09:21:50;18.70;99.90
6843;DHT22;3460;52.028;8.916;2023-05-14T09:24:21;19.00;99.90
6843;DHT22;3460;52.028;8.916;2023-05-14T09:26:49;19.30;99.90
6843;DHT22;3460;52.028;8.916;2023-05-14T09:29:17;19.00;99.90
6843;DHT22;3460;52.028;8.916;2023-05-14T09:31:44;18.40;99.90
6843;DHT22;3460;52.028;8.916;2023-05-14T09:34:11;18.40;99.90
6843;DHT22;3460;52.028;8.916;2023-05-14T09:36:50;18.50;99.90
6843;DHT22;3460;52.028;8.916;2023-05-14T09:39:19;18.60;99.90
6843;DHT22;3460;52.028;8.916;2023-05-14T09:41:48;18.80;99.90
6843;DHT22;3460;52.028;8.916;2023-05-14T09:44:16;19.00;99.90
6843;DHT22;3460;52.028;8.916;2023-05-14T09:46:43;19.20;99.90
6843;DHT22;3460;52.028;8.916;2023-05-14T09:49:10;19.10;99.90
6843;DHT22;3460;52.028;8.916;2023-05-14T09:51:37;19.00;99.90
6843;DHT22;3460;52.028;8.916;2023-05-14T09:54:06;19.00;99.90
6843;DHT22;3460;52.028;8.916;2023-05-14T09:56:33;19.10;99.90
6843;DHT22;3460;52.028;8.916;2023-05-14T09:59:00;19.40;99.90
6843;DHT22;3460;52.028;8.916;2023-05-14T10:01:28;19.70;99.90
6843;DHT22;3460;52.028;8.916;2023-05-14T10:03:55;19.90;99.90
6843;DHT22;3460;52.028;8.916;2023-05-14T10:06:26;20.10;99.90
6843;DHT22;3460;52.028;8.916;2023-05-14T10:08:56;20.20;99.90
6843;DHT22;3460;52.028;8.916;2023-05-14T10:11:30;20.20;99.90
6843;DHT22;3460;52.028;8.916;2023-05-14T10:14:02;20.20;99.90
6843;DHT22;3460;52.028;8.916;2023-05-14T10:16:32;20.20;99.90
6843;DHT22;3460;52.028;8.916;2023-05-14T10:19:02;19.90;99.90
6843;DHT22;3460;52.028;8.916;2023-05-14T10:21:34;19.70;99.90
6843;DHT22;3460;52.028;8.916;2023-05-14T10:24:02;19.90;99.90
6843;DHT22;3460;52.028;8.916;2023-05-14T10:26:31;20.00;99.90
6843;DHT22;3460;52.028;8.916;2023-05-14T10:28:58;20.20;99.90
6843;DHT22;3460;52.028;8.916;2023-05-14T10:31:46;20.30;99.90
6843;DHT22;3460;52.028;8.916;2023-05-14T10:34:33;20.60;99.90
6843;DHT22;3460;52.028;8.916;2023-05-14T10:37:03;20.70;99.90
6843;DHT22;3460;52.028;8.916;2023-05-14T10:39:40;20.60;99.90
6843;DHT22;3460;52.028;8.916;2023-05-14T10:42:10;20.60;99.90
6843;DHT22;3460;52.028;8.916;2023-05-14T10:44:41;20.60;99.90
6843;DHT22;3460;52.028;8.916;2023-05-14T10:47:13;20.60;99.90
6843;DHT22;3460;52.028;8.916;2023-05-14T10:49:41;20.60;99.90
6843;DHT22;3460;52.028;8.916;2023-05-14T10:52:09;20.50;99.90
6843;DHT22;3460;52.028;8.916;2023-05-14T10:54:36;20.40;99.90
6843;DHT22;3460;52.028;8.916;2023-05-14T10:57:11;20.40;99.90
6843;DHT22;3460;52.028;8.916;2023-05-14T10:59:41;20.50;99.90
6843;DHT22;3460;52.028;8.916;2023-05-14T11:02:19;20.50;99.90
6843;DHT22;3460;52.028;8.916;2023-05-14T11:04:52;20.60;99.90
6843;DHT22;3460;52.028;8.916;2023-05-14T11:07:23;20.90;99.90
6843;DHT22;3460;52.028;8.916;2023-05-14T11:09:50;20.80;99.90
6843;DHT22;3460;52.028;8.916;2023-05-14T11:12:18;20.90;99.90
6843;DHT22;3460;52.028;8.916;2023-05-14T11:14:46;20.90;99.90
6843;DHT22;3460;52.028;8.916;2023-05-14T11:17:14;20.80;99.90
6843;DHT22;3460;52.028;8.916;2023-05-14T11:19:42;20.60;99.90
6843;DHT22;3460;52.028;8.916;2023-05-14T11:22:09;20.50;99.90
6843;DHT22;3460;52.028;8.916;2023-05-14T11:24:38;20.40;99.90
6843;DHT22;3460;52.028;8.916;2023-05-14T11:27:06;20.40;99.90
6843;DHT22;3460;52.028;8.916;2023-05-14T11:29:35;20.30;99.90
6843;DHT22;3460;52.028;8.916;2023-05-14T11:32:04;20.10;99.90
6843;DHT22;3460;52.028;8.916;2023-05-14T11:34:32;19.90;99.90
6843;DHT22;3460;52.028;8.916;2023-05-14T11:37:02;20.00;99.90
6843;DHT22;3460;52.028;8.916;2023-05-14T11:39:29;20.00;99.90
6843;DHT22;3460;52.028;8.916;2023-05-14T11:41:57;20.00;99.90
6843;DHT22;3460;52.028;8.916;2023-05-14T11:44:24;20.10;99.90
6843;DHT22;3460;52.028;8.916;2023-05-14T11:46:56;20.30;99.90
6843;DHT22;3460;52.028;8.916;2023-05-14T11:49:23;20.40;99.90
6843;DHT22;3460;52.028;8.916;2023-05-14T11:51:56;20.50;99.90
6843;DHT22;3460;52.028;8.916;2023-05-14T11:54:25;20.40;99.90
6843;DHT22;3460;52.028;8.916;2023-05-14T11:56:52;20.20;99.90
6843;DHT22;3460;52.028;8.916;2023-05-14T11:59:19;20.20;99.90
6843;DHT22;3460;52.028;8.916;2023-05-14T12:01:47;20.00;99.90
6843;DHT22;3460;52.028;8.916;2023-05-14T12:04:16;19.90;99.90
6843;DHT22;3460;52.028;8.916;2023-05-14T12:06:46;19.70;99.90
6843;DHT22;3460;52.028;8.916;2023-05-14T12:09:15;19.80;99.90
6843;DHT22;3460;52.028;8.916;2023-05-14T12:11:42;19.90;99.90
6843;DHT22;3460;52.028;8.916;2023-05-14T12:14:10;19.90;99.90
6843;DHT22;3460;52.028;8.916;2023-05-14T12:16:39;19.80;99.90
6843;DHT22;3460;52.028;8.916;2023-05-14T12:19:08;19.90;99.90
6843;DHT22;3460;52.028;8.916;2023-05-14T12:21:37;19.90;99.90
6843;DHT22;3460;52.028;8.916;2023-05-14T12:24:08;19.90;99.90
6843;DHT22;3460;52.028;8.916;2023-05-14T12:26:35;19.90;99.90
6843;DHT22;3460;52.028;8.916;2023-05-14T12:29:04;19.90;99.90
6843;DHT22;3460;52.028;8.916;2023-05-14T12:31:32;19.90;99.90
6843;DHT22;3460;52.028;8.916;2023-05-14T12:33:59;19.90;99.90
6843;DHT22;3460;52.028;8.916;2023-05-14T12:36:26;20.00;99.90
6843;DHT22;3460;52.028;8.916;2023-05-14T12:38:58;19.90;99.90
6843;DHT22;3460;52.028;8.916;2023-05-14T12:41:26;19.90;99.90
6843;DHT22;3460;52.028;8.916;2023-05-14T12:43:53;20.00;99.90
6843;DHT22;3460;52.028;8.916;2023-05-14T12:46:19;19.90;99.90
6843;DHT22;3460;52.028;8.916;2023-05-14T12:48:46;20.20;99.90
6843;DHT22;3460;52.028;8.916;2023-05-14T12:51:14;20.20;99.90
6843;DHT22;3460;52.028;8.916;2023-05-14T12:53:40;20.30;99.90
6843;DHT22;3460;52.028;8.916;2023-05-14T12:56:09;20.50;99.90
6843;DHT22;3460;52.028;8.916;2023-05-14T12:58:35;20.60;99.90
6843;DHT22;3460;52.028;8.916;2023-05-14T13:01:03;20.80;99.90
6843;DHT22;3460;52.028;8.916;2023-05-14T13:03:30;21.20;99.90
6843;DHT22;3460;52.028;8.916;2023-05-14T13:05:57;21.40;99.90
6843;DHT22;3460;52.028;8.916;2023-05-14T13:08:24;21.40;99.90
6843;DHT22;3460;52.028;8.916;2023-05-14T13:10:52;21.20;99.90
6843;DHT22;3460;52.028;8.916;2023-05-14T13:13:20;21.20;99.90
6843;DHT22;3460;52.028;8.916;2023-05-14T13:15:47;21.00;99.90
6843;DHT22;3460;52.028;8.916;2023-05-14T13:18:14;21.00;99.90
6843;DHT22;3460;52.028;8.916;2023-05-14T13:20:41;21.10;99.90
6843;DHT22;3460;52.028;8.916;2023-05-14T13:23:08;21.20;99.90
6843;DHT22;3460;52.028;8.916;2023-05-14T13:25:35;21.20;99.90
6843;DHT22;3460;52.028;8.916;2023-05-14T13:28:02;21.20;99.90
6843;DHT22;3460;52.028;8.916;2023-05-14T13:30:30;20.80;99.90
6843;DHT22;3460;52.028;8.916;2023-05-14T13:32:57;20.40;99.90
6843;DHT22;3460;52.028;8.916;2023-05-14T13:35:24;20.00;99.90
6843;DHT22;3460;52.028;8.916;2023-05-14T13:37:50;19.40;99.90
6843;DHT22;3460;52.028;8.916;2023-05-14T13:40:17;18.90;99.90
6843;DHT22;3460;52.028;8.916;2023-05-14T13:42:44;18.60;99.90
6843;DHT22;3460;52.028;8.916;2023-05-14T13:45:11;18.40;99.90
6843;DHT22;3460;52.028;8.916;2023-05-14T13:47:39;18.20;99.90
6843;DHT22;3460;52.028;8.916;2023-05-14T13:50:07;18.20;99.90
6843;DHT22;3460;52.028;8.916;2023-05-14T13:52:34;18.10;99.90
6843;DHT22;3460;52.028;8.916;2023-05-14T13:55:02;18.20;99.90
6843;DHT22;3460;52.028;8.916;2023-05-14T13:57:29;18.30;99.90
6843;DHT22;3460;52.028;8.916;2023-05-14T13:59:56;18.40;99.90
6843;DHT22;3460;52.028;8.916;2023-05-14T14:02:23;18.50;99.90
6843;DHT22;3460;52.028;8.916;2023-05-14T14:04:51;18.50;99.90
6843;DHT22;3460;52.028;8.916;2023-05-14T14:07:17;18.50;99.90
6843;DHT22;3460;52.028;8.916;2023-05-14T14:09:45;18.60;99.90
6843;DHT22;3460;52.028;8.916;2023-05-14T14:12:12;18.60;99.90
6843;DHT22;3460;52.028;8.916;2023-05-14T14:14:39;18.60;99.90
6843;DHT22;3460;52.028;8.916;2023-05-14T14:17:06;18.50;99.90
6843;DHT22;3460;52.028;8.916;2023-05-14T14:19:33;18.50;99.90
6843;DHT22;3460;52.028;8.916;2023-05-14T14:22:01;18.40;99.90
6843;DHT22;3460;52.028;8.916;2023-05-14T14:24:28;18.30;99.90
6843;DHT22;3460;52.028;8.916;2023-05-14T14:26:55;18.10;99.90
6843;DHT22;3460;52.028;8.916;2023-05-14T14:29:22;17.90;99.90
6843;DHT22;3460;52.028;8.916;2023-05-14T14:31:48;17.80;99.90
6843;DHT22;3460;52.028;8.916;2023-05-14T14:34:15;17.90;99.90
6843;DHT22;3460;52.028;8.916;2023-05-14T14:36:42;17.90;99.90
6843;DHT22;3460;52.028;8.916;2023-05-14T14:39:10;17.90;99.90
6843;DHT22;3460;52.028;8.916;2023-05-14T14:41:37;17.90;99.90
6843;DHT22;3460;52.028;8.916;2023-05-14T14:44:04;17.90;99.90
6843;DHT22;3460;52.028;8.916;2023-05-14T14:46:31;17.90;99.90
6843;DHT22;3460;52.028;8.916;2023-05-14T14:48:58;18.00;99.90
6843;DHT22;3460;52.028;8.916;2023-05-14T14:51:24;18.00;99.90
6843;DHT22;3460;52.028;8.916;2023-05-14T14:53:51;17.90;99.90
6843;DHT22;3460;52.028;8.916;2023-05-14T14:56:20;17.80;99.90
6843;DHT22;3460;52.028;8.916;2023-05-14T14:58:46;17.80;99.90
6843;DHT22;3460;52.028;8.916;2023-05-14T15:01:13;17.80;99.90
6843;DHT22;3460;52.028;8.916;2023-05-14T15:03:41;17.70;99.90
6843;DHT22;3460;52.028;8.916;2023-05-14T15:06:09;17.60;99.90
6843;DHT22;3460;52.028;8.916;2023-05-14T15:08:36;17.70;99.90
6843;DHT22;3460;52.028;8.916;2023-05-14T15:11:03;17.60;99.90
6843;DHT22;3460;52.028;8.916;2023-05-14T15:13:32;17.60;99.90
6843;DHT22;3460;52.028;8.916;2023-05-14T15:15:59;17.70;99.90
6843;DHT22;3460;52.028;8.916;2023-05-14T15:18:26;17.60;99.90
6843;DHT22;3460;52.028;8.916;2023-05-14T15:20:52;17.60;99.90
6843;DHT22;3460;52.028;8.916;2023-05-14T15:23:19;17.70;99.90
6843;DHT22;3460;52.028;8.916;2023-05-14T15:25:46;17.70;99.90
6843;DHT22;3460;52.028;8.916;2023-05-14T15:28:14;17.70;99.90
6843;DHT22;3460;52.028;8.916;2023-05-14T15:30:42;17.70;99.90
6843;DHT22;3460;52.028;8.916;2023-05-14T15:33:09;17.70;99.90
6843;DHT22;3460;52.028;8.916;2023-05-14T15:35:36;17.60;99.90
6843;DHT22;3460;52.028;8.916;2023-05-14T15:38:03;17.50;99.90
6843;DHT22;3460;52.028;8.916;2023-05-14T15:40:30;17.50;99.90
6843;DHT22;3460;52.028;8.916;2023-05-14T15:42:59;17.50;99.90
6843;DHT22;3460;52.028;8.916;2023-05-14T15:45:26;17.40;99.90
6843;DHT22;3460;52.028;8.916;2023-05-14T15:47:55;17.40;99.90
6843;DHT22;3460;52.028;8.916;2023-05-14T15:50:21;17.30;99.90
6843;DHT22;3460;52.028;8.916;2023-05-14T15:52:50;17.30;99.90
6843;DHT22;3460;52.028;8.916;2023-05-14T15:55:17;17.30;99.90
6843;DHT22;3460;52.028;8.916;2023-05-14T15:57:44;17.20;99.90
6843;DHT22;3460;52.028;8.916;2023-05-14T16:00:11;17.20;99.90
6843;DHT22;3460;52.028;8.916;2023-05-14T16:02:38;17.30;99.90
6843;DHT22;3460;52.028;8.916;2023-05-14T16:05:07;17.40;99.90
6843;DHT22;3460;52.028;8.916;2023-05-14T16:07:35;17.40;99.90
6843;DHT22;3460;52.028;8.916;2023-05-14T16:10:02;17.50;99.90